sensor_id;sensor_type;location;lat;lon;timestamp;P1;durP1;ratioP1;P2;durP2;ratioP2
1601;SDS011;794;48.592;9.634;2023-09-18T00:00:43;4.37;;;3.80;;
1601;SDS011;794;48.592;9.634;2023-09-18T00:03:11;3.70;;;3.40;;
1601;SDS011;794;48.592;9.634;2023-09-18T00:05:40;4.87;;;3.50;;
1601;SDS011;794;48.592;9.634;2023-09-18T00:08:07;3.83;;;3.53;;
1601;SDS011;794;48.592;9.634;2023-09-18T00:10:35;3.43;;;3.13;;
1601;SDS011;794;48.592;9.634;2023-09-18T00:13:04;4.00;;;3.70;;
1601;SDS011;794;48.592;9.634;2023-09-18T00:15:31;4.00;;;3.50;;
1601;SDS011;794;48.592;9.634;2023-09-18T00:17:58;5.67;;;3.87;;
1601;SDS011;794;48.592;9.634;2023-09-18T00:20:26;4.63;;;4.00;;
1601;SDS011;794;48.592;9.634;2023-09-18T00:22:53;4.23;;;3.83;;
1601;SDS011;794;48.592;9.634;2023-09-18T00:25:20;5.43;;;3.70;;
1601;SDS011;794;48.592;9.634;2023-09-18T00:27:52;4.03;;;3.63;;
1601;SDS011;794;48.592;9.634;2023-09-18T00:30:22;4.57;;;4.17;;
1601;SDS011;794;48.592;9.634;2023-09-18T00:32:51;4.80;;;4.40;;
1601;SDS011;794;48.592;9.634;2023-09-18T00:35:21;4.90;;;4.50;;
1601;SDS011;794;48.592;9.634;2023-09-18T00:37:49;4.70;;;3.90;;
1601;SDS011;794;48.592;9.634;2023-09-18T00:40:16;3.90;;;3.60;;
1601;SDS011;794;48.592;9.634;2023-09-18T00:42:45;5.20;;;3.20;;
1601;SDS011;794;48.592;9.634;2023-09-18T00:45:14;4.83;;;3.93;;
1601;SDS011;794;48.592;9.634;2023-09-18T00:47:41;5.77;;;4.20;;
1601;SDS011;794;48.592;9.634;2023-09-18T00:50:09;6.23;;;3.30;;
1601;SDS011;794;48.592;9.634;2023-09-18T00:52:39;4.43;;;3.13;;
1601;SDS011;794;48.592;9.634;2023-09-18T00:55:10;5.47;;;4.00;;
1601;SDS011;794;48.592;9.634;2023-09-18T00:57:41;4.70;;;2.80;;
1601;SDS011;794;48.592;9.634;2023-09-18T01:00:09;3.83;;;3.50;;
1601;SDS011;794;48.592;9.634;2023-09-18T01:02:41;3.70;;;3.37;;
1601;SDS011;794;48.592;9.634;2023-09-18T01:05:10;3.63;;;3.03;;
1601;SDS011;794;48.592;9.634;2023-09-18T01:07:37;6.40;;;3.53;;
1601;SDS011;794;48.592;9.634;2023-09-18T01:10:04;5.00;;;3.50;;
1601;SDS011;794;48.592;9.634;2023-09-18T01:12:36;8.00;;;3.53;;
1601;SDS011;794;48.592;9.634;2023-09-18T01:15:12;5.20;;;3.33;;
1601;SDS011;794;48.592;9.634;2023-09-18T01:17:50;3.90;;;3.20;;
1601;SDS011;794;48.592;9.634;2023-09-18T01:20:17;6.60;;;3.27;;
1601;SDS011;794;48.592;9.634;2023-09-18T01:22:48;9.20;;;3.70;;
1601;SDS011;794;48.592;9.634;2023-09-18T01:25:15;4.57;;;3.03;;
1601;SDS011;794;48.592;9.634;2023-09-18T01:27:44;4.93;;;3.70;;
1601;SDS011;794;48.592;9.634;2023-09-18T01:30:11;6.10;;;3.37;;
1601;SDS011;794;48.592;9.634;2023-09-18T01:32:40;3.20;;;2.90;;
1601;SDS011;794;48.592;9.634;2023-09-18T01:35:09;3.30;;;2.77;;
1601;SDS011;794;48.592;9.634;2023-09-18T01:37:37;4.03;;;3.53;;
1601;SDS011;794;48.592;9.634;2023-09-18T01:40:08;6.60;;;2.70;;
1601;SDS011;794;48.592;9.634;2023-09-18T01:42:36;4.87;;;3.03;;
1601;SDS011;794;48.592;9.634;2023-09-18T01:45:03;9.90;;;2.97;;
1601;SDS011;794;48.592;9.634;2023-09-18T01:47:31;3.80;;;2.60;;
1601;SDS011;794;48.592;9.634;2023-09-18T01:49:59;5.93;;;2.73;;
1601;SDS011;794;48.592;9.634;2023-09-18T01:52:30;8.07;;;3.33;;
1601;SDS011;794;48.592;9.634;2023-09-18T01:54:57;4.73;;;2.90;;
1601;SDS011;794;48.592;9.634;2023-09-18T01:57:25;4.40;;;2.40;;
1601;SDS011;794;48.592;9.634;2023-09-18T01:59:58;4.23;;;2.90;;
1601;SDS011;794;48.592;9.634;2023-09-18T02:02:25;4.50;;;2.57;;
1601;SDS011;794;48.592;9.634;2023-09-18T02:04:52;4.53;;;2.60;;
1601;SDS011;794;48.592;9.634;2023-09-18T02:07:20;6.10;;;2.43;;
1601;SDS011;794;48.592;9.634;2023-09-18T02:09:50;6.70;;;3.17;;
1601;SDS011;794;48.592;9.634;2023-09-18T02:12:17;6.80;;;2.93;;
1601;SDS011;794;48.592;9.634;2023-09-18T02:14:46;5.00;;;2.73;;
1601;SDS011;794;48.592;9.634;2023-09-18T02:17:13;3.90;;;2.80;;
1601;SDS011;794;48.592;9.634;2023-09-18T02:19:40;6.00;;;2.80;;
1601;SDS011;794;48.592;9.634;2023-09-18T02:22:08;4.30;;;2.70;;
1601;SDS011;794;48.592;9.634;2023-09-18T02:24:35;5.17;;;2.80;;
1601;SDS011;794;48.592;9.634;2023-09-18T02:27:03;4.27;;;2.93;;
1601;SDS011;794;48.592;9.634;2023-09-18T02:29:30;4.80;;;2.90;;
1601;SDS011;794;48.592;9.634;2023-09-18T02:31:59;7.93;;;3.07;;
1601;SDS011;794;48.592;9.634;2023-09-18T02:34:26;7.17;;;2.90;;
1601;SDS011;794;48.592;9.634;2023-09-18T02:36:54;4.93;;;2.90;;
1601;SDS011;794;48.592;9.634;2023-09-18T02:39:21;4.30;;;3.20;;
1601;SDS011;794;48.592;9.634;2023-09-18T02:41:49;4.37;;;2.80;;
1601;SDS011;794;48.592;9.634;2023-09-18T02:44:16;4.50;;;2.87;;
1601;SDS011;794;48.592;9.634;2023-09-18T02:46:43;6.90;;;3.40;;
1601;SDS011;794;48.592;9.634;2023-09-18T02:49:11;7.27;;;2.67;;
1601;SDS011;794;48.592;9.634;2023-09-18T02:51:38;7.47;;;3.10;;
1601;SDS011;794;48.592;9.634;2023-09-18T02:54:05;4.43;;;2.80;;
1601;SDS011;794;48.592;9.634;2023-09-18T02:56:32;4.73;;;2.70;;
1601;SDS011;794;48.592;9.634;2023-09-18T02:58:59;5.00;;;2.50;;
1601;SDS011;794;48.592;9.634;2023-09-18T03:01:26;3.63;;;2.40;;
1601;SDS011;794;48.592;9.634;2023-09-18T03:03:53;8.27;;;2.40;;
1601;SDS011;794;48.592;9.634;2023-09-18T03:06:21;7.77;;;3.37;;
1601;SDS011;794;48.592;9.634;2023-09-18T03:08:48;8.33;;;2.70;;
1601;SDS011;794;48.592;9.634;2023-09-18T03:11:15;4.80;;;2.80;;
1601;SDS011;794;48.592;9.634;2023-09-18T03:13:43;6.73;;;3.10;;
1601;SDS011;794;48.592;9.634;2023-09-18T03:16:11;8.90;;;3.37;;
1601;SDS011;794;48.592;9.634;2023-09-18T03:18:38;4.90;;;2.40;;
1601;SDS011;794;48.592;9.634;2023-09-18T03:21:05;11.13;;;2.97;;
1601;SDS011;794;48.592;9.634;2023-09-18T03:23:33;6.23;;;2.70;;
1601;SDS011;794;48.592;9.634;2023-09-18T03:26:00;3.80;;;2.83;;
1601;SDS011;794;48.592;9.634;2023-09-18T03:28:28;3.00;;;2.80;;
1601;SDS011;794;48.592;9.634;2023-09-18T03:30:57;5.80;;;3.47;;
1601;SDS011;794;48.592;9.634;2023-09-18T03:33:30;7.07;;;3.47;;
1601;SDS011;794;48.592;9.634;2023-09-18T03:35:56;12.70;;;3.43;;
1601;SDS011;794;48.592;9.634;2023-09-18T03:38:23;3.63;;;2.77;;
1601;SDS011;794;48.592;9.634;2023-09-18T03:40:52;6.33;;;3.03;;
1601;SDS011;794;48.592;9.634;2023-09-18T03:43:20;6.20;;;3.33;;
1601;SDS011;794;48.592;9.634;2023-09-18T03:45:47;6.10;;;3.00;;
1601;SDS011;794;48.592;9.634;2023-09-18T03:48:14;4.83;;;3.50;;
1601;SDS011;794;48.592;9.634;2023-09-18T03:50:41;7.83;;;2.57;;
1601;SDS011;794;48.592;9.634;2023-09-18T03:53:09;5.27;;;3.20;;
1601;SDS011;794;48.592;9.634;2023-09-18T03:55:36;6.40;;;3.17;;
1601;SDS011;794;48.592;9.634;2023-09-18T03:58:04;4.53;;;3.43;;
1601;SDS011;794;48.592;9.634;2023-09-18T04:00:35;4.97;;;2.83;;
1601;SDS011;794;48.592;9.634;2023-09-18T04:03:05;3.47;;;2.70;;
1601;SDS011;794;48.592;9.634;2023-09-18T04:05:32;5.63;;;3.07;;
1601;SDS011;794;48.592;9.634;2023-09-18T04:07:58;6.20;;;3.50;;
1601;SDS011;794;48.592;9.634;2023-09-18T04:10:27;11.10;;;3.40;;
1601;SDS011;794;48.592;9.634;2023-09-18T04:12:54;4.93;;;3.20;;
1601;SDS011;794;48.592;9.634;2023-09-18T04:15:22;7.67;;;3.57;;
1601;SDS011;794;48.592;9.634;2023-09-18T04:17:50;9.67;;;3.17;;
1601;SDS011;794;48.592;9.634;2023-09-18T04:20:17;6.87;;;3.13;;
1601;SDS011;794;48.592;9.634;2023-09-18T04:22:45;7.27;;;3.13;;
1601;SDS011;794;48.592;9.634;2023-09-18T04:25:14;6.70;;;3.43;;
1601;SDS011;794;48.592;9.634;2023-09-18T04:27:42;3.00;;;2.43;;
1601;SDS011;794;48.592;9.634;2023-09-18T04:30:09;5.33;;;3.00;;
1601;SDS011;794;48.592;9.634;2023-09-18T04:32:41;4.10;;;3.10;;
1601;SDS011;794;48.592;9.634;2023-09-18T04:35:09;8.30;;;4.00;;
1601;SDS011;794;48.592;9.634;2023-09-18T04:37:38;9.67;;;3.53;;
1601;SDS011;794;48.592;9.634;2023-09-18T04:40:05;3.63;;;2.70;;
1601;SDS011;794;48.592;9.634;2023-09-18T04:42:37;9.03;;;2.77;;
1601;SDS011;794;48.592;9.634;2023-09-18T04:45:05;6.87;;;2.63;;
1601;SDS011;794;48.592;9.634;2023-09-18T04:47:33;4.80;;;2.60;;
1601;SDS011;794;48.592;9.634;2023-09-18T04:50:02;4.70;;;2.60;;
1601;SDS011;794;48.592;9.634;2023-09-18T04:52:31;8.80;;;2.80;;
1601;SDS011;794;48.592;9.634;2023-09-18T04:54:58;7.80;;;2.43;;
1601;SDS011;794;48.592;9.634;2023-09-18T04:57:25;10.87;;;3.17;;
1601;SDS011;794;48.592;9.634;2023-09-18T04:59:52;5.30;;;3.10;;
1601;SDS011;794;48.592;9.634;2023-09-18T05:02:21;9.10;;;2.90;;
1601;SDS011;794;48.592;9.634;2023-09-18T05:04:50;5.13;;;2.60;;
1601;SDS011;794;48.592;9.634;2023-09-18T05:07:18;3.90;;;2.50;;
1601;SDS011;794;48.592;9.634;2023-09-18T05:09:46;10.50;;;3.00;;
1601;SDS011;794;48.592;9.634;2023-09-18T05:12:14;5.40;;;2.53;;
1601;SDS011;794;48.592;9.634;2023-09-18T05:14:41;13.40;;;2.70;;
1601;SDS011;794;48.592;9.634;2023-09-18T05:17:09;6.83;;;2.47;;
1601;SDS011;794;48.592;9.634;2023-09-18T05:19:37;6.87;;;2.60;;
1601;SDS011;794;48.592;9.634;2023-09-18T05:22:05;5.43;;;2.77;;
1601;SDS011;794;48.592;9.634;2023-09-18T05:24:34;7.13;;;2.80;;
1601;SDS011;794;48.592;9.634;2023-09-18T05:27:01;7.27;;;2.53;;
1601;SDS011;794;48.592;9.634;2023-09-18T05:29:28;5.80;;;3.00;;
1601;SDS011;794;48.592;9.634;2023-09-18T05:31:55;8.43;;;3.10;;
1601;SDS011;794;48.592;9.634;2023-09-18T05:34:22;7.00;;;2.90;;
1601;SDS011;794;48.592;9.634;2023-09-18T05:36:52;4.83;;;2.00;;
1601;SDS011;794;48.592;9.634;2023-09-18T05:39:22;8.33;;;2.53;;
1601;SDS011;794;48.592;9.634;2023-09-18T05:41:50;11.70;;;3.07;;
1601;SDS011;794;48.592;9.634;2023-09-18T05:44:19;9.30;;;3.10;;
1601;SDS011;794;48.592;9.634;2023-09-18T05:46:46;5.33;;;3.03;;
1601;SDS011;794;48.592;9.634;2023-09-18T05:49:13;6.90;;;2.80;;
1601;SDS011;794;48.592;9.634;2023-09-18T05:51:40;5.63;;;2.13;;
1601;SDS011;794;48.592;9.634;2023-09-18T05:54:08;6.63;;;2.40;;
1601;SDS011;794;48.592;9.634;2023-09-18T05:56:35;5.97;;;3.90;;
1601;SDS011;794;48.592;9.634;2023-09-18T05:59:03;10.80;;;2.97;;
1601;SDS011;794;48.592;9.634;2023-09-18T06:01:30;6.00;;;2.80;;
1601;SDS011;794;48.592;9.634;2023-09-18T06:04:00;10.03;;;2.70;;
1601;SDS011;794;48.592;9.634;2023-09-18T06:06:28;7.63;;;2.27;;
1601;SDS011;794;48.592;9.634;2023-09-18T06:08:55;5.60;;;1.97;;
1601;SDS011;794;48.592;9.634;2023-09-18T06:11:22;6.53;;;2.50;;
1601;SDS011;794;48.592;9.634;2023-09-18T06:13:52;3.87;;;2.20;;
1601;SDS011;794;48.592;9.634;2023-09-18T06:16:23;7.53;;;3.77;;
1601;SDS011;794;48.592;9.634;2023-09-18T06:18:50;7.90;;;3.17;;
1601;SDS011;794;48.592;9.634;2023-09-18T06:21:17;4.67;;;2.90;;
1601;SDS011;794;48.592;9.634;2023-09-18T06:23:47;7.40;;;2.30;;
1601;SDS011;794;48.592;9.634;2023-09-18T06:26:13;2.83;;;1.97;;
1601;SDS011;794;48.592;9.634;2023-09-18T06:28:40;4.63;;;1.27;;
1601;SDS011;794;48.592;9.634;2023-09-18T06:31:07;4.30;;;1.33;;
1601;SDS011;794;48.592;9.634;2023-09-18T06:33:36;5.27;;;1.50;;
1601;SDS011;794;48.592;9.634;2023-09-18T06:36:06;5.53;;;1.40;;
1601;SDS011;794;48.592;9.634;2023-09-18T06:38:33;3.30;;;1.07;;
1601;SDS011;794;48.592;9.634;2023-09-18T06:41:00;10.30;;;1.93;;
1601;SDS011;794;48.592;9.634;2023-09-18T06:43:31;3.60;;;0.73;;
1601;SDS011;794;48.592;9.634;2023-09-18T06:46:02;2.37;;;1.50;;
1601;SDS011;794;48.592;9.634;2023-09-18T06:48:29;6.10;;;1.67;;
1601;SDS011;794;48.592;9.634;2023-09-18T06:50:58;4.50;;;1.47;;
1601;SDS011;794;48.592;9.634;2023-09-18T06:53:26;2.50;;;1.33;;
1601;SDS011;794;48.592;9.634;2023-09-18T06:55:55;2.30;;;1.20;;
1601;SDS011;794;48.592;9.634;2023-09-18T06:58:22;5.10;;;2.00;;
1601;SDS011;794;48.592;9.634;2023-09-18T07:00:49;7.50;;;1.90;;
1601;SDS011;794;48.592;9.634;2023-09-18T07:03:16;7.13;;;1.73;;
1601;SDS011;794;48.592;9.634;2023-09-18T07:05:46;3.93;;;1.83;;
1601;SDS011;794;48.592;9.634;2023-09-18T07:08:14;3.63;;;1.33;;
1601;SDS011;794;48.592;9.634;2023-09-18T07:10:44;3.93;;;1.67;;
1601;SDS011;794;48.592;9.634;2023-09-18T07:13:11;4.43;;;1.63;;
1601;SDS011;794;48.592;9.634;2023-09-18T07:15:38;5.93;;;1.60;;
1601;SDS011;794;48.592;9.634;2023-09-18T07:18:05;4.17;;;1.77;;
1601;SDS011;794;48.592;9.634;2023-09-18T07:20:32;7.20;;;2.17;;
1601;SDS011;794;48.592;9.634;2023-09-18T07:23:01;4.10;;;2.13;;
1601;SDS011;794;48.592;9.634;2023-09-18T07:25:31;7.63;;;1.60;;
1601;SDS011;794;48.592;9.634;2023-09-18T07:27:58;7.20;;;2.10;;
1601;SDS011;794;48.592;9.634;2023-09-18T07:30:25;3.30;;;1.87;;
1601;SDS011;794;48.592;9.634;2023-09-18T07:32:54;3.40;;;1.77;;
1601;SDS011;794;48.592;9.634;2023-09-18T07:35:25;7.07;;;3.10;;
1601;SDS011;794;48.592;9.634;2023-09-18T07:37:55;4.83;;;1.80;;
1601;SDS011;794;48.592;9.634;2023-09-18T07:40:22;5.20;;;2.27;;
1601;SDS011;794;48.592;9.634;2023-09-18T07:42:54;4.87;;;1.50;;
1601;SDS011;794;48.592;9.634;2023-09-18T07:45:27;3.47;;;1.50;;
1601;SDS011;794;48.592;9.634;2023-09-18T07:47:55;6.40;;;1.57;;
1601;SDS011;794;48.592;9.634;2023-09-18T07:50:25;6.40;;;1.50;;
1601;SDS011;794;48.592;9.634;2023-09-18T07:52:56;2.93;;;1.97;;
1601;SDS011;794;48.592;9.634;2023-09-18T07:55:24;3.60;;;1.50;;
1601;SDS011;794;48.592;9.634;2023-09-18T07:57:56;2.73;;;1.20;;
1601;SDS011;794;48.592;9.634;2023-09-18T08:00:24;3.53;;;1.37;;
1601;SDS011;794;48.592;9.634;2023-09-18T08:02:52;5.83;;;1.47;;
1601;SDS011;794;48.592;9.634;2023-09-18T08:05:23;3.33;;;1.63;;
1601;SDS011;794;48.592;9.634;2023-09-18T08:07:56;3.97;;;1.37;;
1601;SDS011;794;48.592;9.634;2023-09-18T08:10:24;3.20;;;1.40;;
1601;SDS011;794;48.592;9.634;2023-09-18T08:12:51;5.90;;;2.50;;
1601;SDS011;794;48.592;9.634;2023-09-18T08:15:22;6.40;;;1.57;;
1601;SDS011;794;48.592;9.634;2023-09-18T08:17:49;3.00;;;1.17;;
1601;SDS011;794;48.592;9.634;2023-09-18T08:20:17;7.33;;;1.40;;
1601;SDS011;794;48.592;9.634;2023-09-18T08:22:47;6.07;;;1.83;;
1601;SDS011;794;48.592;9.634;2023-09-18T08:25:17;3.07;;;1.20;;
1601;SDS011;794;48.592;9.634;2023-09-18T08:27:50;2.13;;;1.27;;
1601;SDS011;794;48.592;9.634;2023-09-18T08:30:17;7.30;;;1.63;;
1601;SDS011;794;48.592;9.634;2023-09-18T08:32:48;4.00;;;1.50;;
1601;SDS011;794;48.592;9.634;2023-09-18T08:35:15;4.10;;;1.20;;
1601;SDS011;794;48.592;9.634;2023-09-18T08:37:42;2.47;;;1.37;;
1601;SDS011;794;48.592;9.634;2023-09-18T08:40:13;9.90;;;1.77;;
1601;SDS011;794;48.592;9.634;2023-09-18T08:42:40;9.50;;;1.43;;
1601;SDS011;794;48.592;9.634;2023-09-18T08:45:13;6.33;;;1.17;;
1601;SDS011;794;48.592;9.634;2023-09-18T08:47:45;4.40;;;1.30;;
1601;SDS011;794;48.592;9.634;2023-09-18T08:50:15;1.53;;;0.90;;
1601;SDS011;794;48.592;9.634;2023-09-18T08:52:44;2.53;;;1.17;;
1601;SDS011;794;48.592;9.634;2023-09-18T08:55:16;2.13;;;1.40;;
1601;SDS011;794;48.592;9.634;2023-09-18T08:57:43;3.57;;;1.10;;
1601;SDS011;794;48.592;9.634;2023-09-18T09:00:12;4.20;;;0.93;;
1601;SDS011;794;48.592;9.634;2023-09-18T09:02:42;3.93;;;1.27;;
1601;SDS011;794;48.592;9.634;2023-09-18T09:05:14;3.83;;;1.17;;
1601;SDS011;794;48.592;9.634;2023-09-18T09:07:42;3.47;;;1.20;;
1601;SDS011;794;48.592;9.634;2023-09-18T09:10:11;2.50;;;1.10;;
1601;SDS011;794;48.592;9.634;2023-09-18T09:12:52;3.03;;;1.30;;
1601;SDS011;794;48.592;9.634;2023-09-18T09:15:21;5.40;;;1.17;;
1601;SDS011;794;48.592;9.634;2023-09-18T09:17:51;2.03;;;0.70;;
1601;SDS011;794;48.592;9.634;2023-09-18T09:20:20;4.20;;;1.20;;
1601;SDS011;794;48.592;9.634;2023-09-18T09:22:47;3.43;;;1.17;;
1601;SDS011;794;48.592;9.634;2023-09-18T09:25:22;6.00;;;0.93;;
1601;SDS011;794;48.592;9.634;2023-09-18T09:27:51;1.10;;;0.80;;
1601;SDS011;794;48.592;9.634;2023-09-18T09:30:19;4.03;;;1.00;;
1601;SDS011;794;48.592;9.634;2023-09-18T09:32:49;1.50;;;0.73;;
1601;SDS011;794;48.592;9.634;2023-09-18T09:35:21;1.23;;;0.80;;
1601;SDS011;794;48.592;9.634;2023-09-18T09:37:59;0.90;;;0.60;;
1601;SDS011;794;48.592;9.634;2023-09-18T09:40:28;1.80;;;0.67;;
1601;SDS011;794;48.592;9.634;2023-09-18T09:42:59;1.37;;;0.50;;
1601;SDS011;794;48.592;9.634;2023-09-18T09:45:27;1.70;;;0.67;;
1601;SDS011;794;48.592;9.634;2023-09-18T09:47:55;1.70;;;0.60;;
1601;SDS011;794;48.592;9.634;2023-09-18T09:50:24;1.80;;;0.60;;
1601;SDS011;794;48.592;9.634;2023-09-18T09:52:52;5.13;;;0.73;;
1601;SDS011;794;48.592;9.634;2023-09-18T09:55:21;1.30;;;0.40;;
1601;SDS011;794;48.592;9.634;2023-09-18T09:57:51;1.17;;;0.50;;
1601;SDS011;794;48.592;9.634;2023-09-18T10:00:22;1.20;;;0.70;;
1601;SDS011;794;48.592;9.634;2023-09-18T10:02:57;2.17;;;0.70;;
1601;SDS011;794;48.592;9.634;2023-09-18T10:05:29;0.60;;;0.60;;
1601;SDS011;794;48.592;9.634;2023-09-18T10:08:01;0.87;;;0.63;;
1601;SDS011;794;48.592;9.634;2023-09-18T10:10:33;1.30;;;0.70;;
1601;SDS011;794;48.592;9.634;2023-09-18T10:13:08;1.90;;;0.93;;
1601;SDS011;794;48.592;9.634;2023-09-18T10:15:39;1.67;;;0.80;;
1601;SDS011;794;48.592;9.634;2023-09-18T10:18:16;0.77;;;0.50;;
1601;SDS011;794;48.592;9.634;2023-09-18T10:20:50;1.00;;;0.60;;
1601;SDS011;794;48.592;9.634;2023-09-18T10:23:26;0.97;;;0.50;;
1601;SDS011;794;48.592;9.634;2023-09-18T10:26:00;1.27;;;0.60;;
1601;SDS011;794;48.592;9.634;2023-09-18T10:28:32;1.33;;;0.70;;
1601;SDS011;794;48.592;9.634;2023-09-18T10:31:00;3.70;;;0.80;;
1601;SDS011;794;48.592;9.634;2023-09-18T10:33:28;1.20;;;0.50;;
1601;SDS011;794;48.592;9.634;2023-09-18T10:35:59;2.80;;;0.73;;
1601;SDS011;794;48.592;9.634;2023-09-18T10:38:28;4.83;;;0.83;;
1601;SDS011;794;48.592;9.634;2023-09-18T10:40:57;1.27;;;0.50;;
1601;SDS011;794;48.592;9.634;2023-09-18T10:43:30;2.50;;;0.60;;
1601;SDS011;794;48.592;9.634;2023-09-18T10:45:57;2.20;;;1.03;;
1601;SDS011;794;48.592;9.634;2023-09-18T10:48:25;2.10;;;0.73;;
1601;SDS011;794;48.592;9.634;2023-09-18T10:50:54;2.00;;;0.80;;
1601;SDS011;794;48.592;9.634;2023-09-18T10:53:26;1.07;;;0.70;;
1601;SDS011;794;48.592;9.634;2023-09-18T10:55:54;1.10;;;0.60;;
1601;SDS011;794;48.592;9.634;2023-09-18T10:58:25;1.53;;;0.60;;
1601;SDS011;794;48.592;9.634;2023-09-18T11:00:53;1.83;;;0.50;;
1601;SDS011;794;48.592;9.634;2023-09-18T11:03:22;1.37;;;0.77;;
1601;SDS011;794;48.592;9.634;2023-09-18T11:06:01;0.80;;;0.60;;
1601;SDS011;794;48.592;9.634;2023-09-18T11:08:34;1.37;;;0.60;;
1601;SDS011;794;48.592;9.634;2023-09-18T11:11:09;0.83;;;0.50;;
1601;SDS011;794;48.592;9.634;2023-09-18T11:13:40;1.13;;;0.73;;
1601;SDS011;794;48.592;9.634;2023-09-18T11:19:10;1.37;;;0.90;;
1601;SDS011;794;48.592;9.634;2023-09-18T11:21:39;1.33;;;0.70;;
1601;SDS011;794;48.592;9.634;2023-09-18T11:24:07;1.53;;;0.60;;
1601;SDS011;794;48.592;9.634;2023-09-18T11:26:42;1.57;;;1.23;;
1601;SDS011;794;48.592;9.634;2023-09-18T11:29:13;3.50;;;1.40;;
1601;SDS011;794;48.592;9.634;2023-09-18T11:31:46;1.40;;;1.00;;
1601;SDS011;794;48.592;9.634;2023-09-18T11:34:14;2.00;;;0.90;;
1601;SDS011;794;48.592;9.634;2023-09-18T11:36:45;2.50;;;1.20;;
1601;SDS011;794;48.592;9.634;2023-09-18T11:39:14;1.50;;;1.00;;
1601;SDS011;794;48.592;9.634;2023-09-18T11:42:07;2.77;;;0.80;;
1601;SDS011;794;48.592;9.634;2023-09-18T11:44:36;1.43;;;0.90;;
1601;SDS011;794;48.592;9.634;2023-09-18T11:47:08;2.40;;;1.00;;
1601;SDS011;794;48.592;9.634;2023-09-18T11:49:46;2.60;;;1.37;;
1601;SDS011;794;48.592;9.634;2023-09-18T11:52:19;2.90;;;1.10;;
1601;SDS011;794;48.592;9.634;2023-09-18T11:54:49;1.30;;;1.20;;
1601;SDS011;794;48.592;9.634;2023-09-18T11:57:17;1.27;;;0.90;;
1601;SDS011;794;48.592;9.634;2023-09-18T11:59:45;1.90;;;1.33;;
1601;SDS011;794;48.592;9.634;2023-09-18T12:02:12;1.70;;;1.00;;
1601;SDS011;794;48.592;9.634;2023-09-18T12:04:55;1.90;;;1.10;;
1601;SDS011;794;48.592;9.634;2023-09-18T12:07:22;1.43;;;1.30;;
1601;SDS011;794;48.592;9.634;2023-09-18T12:09:53;2.40;;;1.20;;
1601;SDS011;794;48.592;9.634;2023-09-18T12:12:20;1.07;;;0.97;;
1601;SDS011;794;48.592;9.634;2023-09-18T12:14:47;0.90;;;0.70;;
1601;SDS011;794;48.592;9.634;2023-09-18T12:17:15;1.97;;;0.90;;
1601;SDS011;794;48.592;9.634;2023-09-18T12:19:50;2.20;;;1.03;;
1601;SDS011;794;48.592;9.634;2023-09-18T12:22:22;2.10;;;1.40;;
1601;SDS011;794;48.592;9.634;2023-09-18T12:24:50;1.70;;;1.07;;
1601;SDS011;794;48.592;9.634;2023-09-18T12:27:20;5.23;;;1.30;;
1601;SDS011;794;48.592;9.634;2023-09-18T12:29:52;3.27;;;1.20;;
1601;SDS011;794;48.592;9.634;2023-09-18T12:32:19;1.20;;;1.00;;
1601;SDS011;794;48.592;9.634;2023-09-18T12:34:46;2.00;;;1.00;;
1601;SDS011;794;48.592;9.634;2023-09-18T12:37:12;1.80;;;0.97;;
1601;SDS011;794;48.592;9.634;2023-09-18T12:39:40;1.00;;;0.83;;
1601;SDS011;794;48.592;9.634;2023-09-18T12:42:07;1.40;;;0.90;;
1601;SDS011;794;48.592;9.634;2023-09-18T12:44:35;1.37;;;1.20;;
1601;SDS011;794;48.592;9.634;2023-09-18T12:47:02;1.73;;;1.10;;
1601;SDS011;794;48.592;9.634;2023-09-18T12:49:31;2.53;;;1.13;;
1601;SDS011;794;48.592;9.634;2023-09-18T12:52:04;2.50;;;1.30;;
1601;SDS011;794;48.592;9.634;2023-09-18T12:54:41;1.30;;;0.97;;
1601;SDS011;794;48.592;9.634;2023-09-18T12:57:19;3.63;;;1.37;;
1601;SDS011;794;48.592;9.634;2023-09-18T12:59:47;4.03;;;1.10;;
1601;SDS011;794;48.592;9.634;2023-09-18T13:02:16;1.07;;;0.80;;
1601;SDS011;794;48.592;9.634;2023-09-18T13:04:50;4.20;;;1.70;;
1601;SDS011;794;48.592;9.634;2023-09-18T13:07:17;2.93;;;0.93;;
1601;SDS011;794;48.592;9.634;2023-09-18T13:09:58;1.27;;;1.17;;
1601;SDS011;794;48.592;9.634;2023-09-18T13:12:38;1.90;;;0.97;;
1601;SDS011;794;48.592;9.634;2023-09-18T13:15:11;1.60;;;1.43;;
1601;SDS011;794;48.592;9.634;2023-09-18T13:17:40;1.63;;;1.53;;
1601;SDS011;794;48.592;9.634;2023-09-18T13:20:13;2.20;;;1.30;;
1601;SDS011;794;48.592;9.634;2023-09-18T13:22:41;2.43;;;1.17;;
1601;SDS011;794;48.592;9.634;2023-09-18T13:25:18;3.80;;;1.40;;
1601;SDS011;794;48.592;9.634;2023-09-18T13:27:46;1.27;;;0.90;;
1601;SDS011;794;48.592;9.634;2023-09-18T13:30:14;1.10;;;0.70;;
1601;SDS011;794;48.592;9.634;2023-09-18T13:32:42;2.23;;;1.17;;
1601;SDS011;794;48.592;9.634;2023-09-18T13:35:13;0.80;;;0.80;;
1601;SDS011;794;48.592;9.634;2023-09-18T13:37:41;2.83;;;1.00;;
1601;SDS011;794;48.592;9.634;2023-09-18T13:40:11;1.43;;;0.80;;
1601;SDS011;794;48.592;9.634;2023-09-18T13:42:40;3.27;;;1.27;;
1601;SDS011;794;48.592;9.634;2023-09-18T13:45:07;1.43;;;0.83;;
1601;SDS011;794;48.592;9.634;2023-09-18T13:47:42;1.37;;;1.00;;
1601;SDS011;794;48.592;9.634;2023-09-18T13:50:14;1.93;;;1.13;;
1601;SDS011;794;48.592;9.634;2023-09-18T13:52:41;4.23;;;1.20;;
1601;SDS011;794;48.592;9.634;2023-09-18T13:55:09;1.07;;;0.97;;
1601;SDS011;794;48.592;9.634;2023-09-18T13:57:36;1.23;;;1.03;;
1601;SDS011;794;48.592;9.634;2023-09-18T14:00:05;1.87;;;0.90;;
1601;SDS011;794;48.592;9.634;2023-09-18T14:02:37;2.90;;;1.20;;
1601;SDS011;794;48.592;9.634;2023-09-18T14:05:09;1.83;;;1.03;;
1601;SDS011;794;48.592;9.634;2023-09-18T14:07:36;2.73;;;1.13;;
1601;SDS011;794;48.592;9.634;2023-09-18T14:10:05;1.00;;;0.90;;
1601;SDS011;794;48.592;9.634;2023-09-18T14:12:35;4.13;;;0.80;;
1601;SDS011;794;48.592;9.634;2023-09-18T14:15:02;2.30;;;0.93;;
1601;SDS011;794;48.592;9.634;2023-09-18T14:17:30;1.53;;;0.90;;
1601;SDS011;794;48.592;9.634;2023-09-18T14:19:57;1.50;;;1.17;;
1601;SDS011;794;48.592;9.634;2023-09-18T14:22:26;1.37;;;1.17;;
1601;SDS011;794;48.592;9.634;2023-09-18T14:24:55;1.50;;;1.13;;
1601;SDS011;794;48.592;9.634;2023-09-18T14:27:21;5.00;;;1.10;;
1601;SDS011;794;48.592;9.634;2023-09-18T14:29:51;3.43;;;0.90;;
1601;SDS011;794;48.592;9.634;2023-09-18T14:32:19;2.40;;;1.47;;
1601;SDS011;794;48.592;9.634;2023-09-18T14:34:47;1.10;;;0.83;;
1601;SDS011;794;48.592;9.634;2023-09-18T14:37:16;3.97;;;1.10;;
1601;SDS011;794;48.592;9.634;2023-09-18T14:39:46;3.13;;;1.37;;
1601;SDS011;794;48.592;9.634;2023-09-18T14:42:16;2.30;;;1.40;;
1601;SDS011;794;48.592;9.634;2023-09-18T14:44:46;2.73;;;1.10;;
1601;SDS011;794;48.592;9.634;2023-09-18T14:47:16;1.63;;;1.00;;
1601;SDS011;794;48.592;9.634;2023-09-18T14:49:43;1.60;;;1.20;;
1601;SDS011;794;48.592;9.634;2023-09-18T14:52:11;4.83;;;1.77;;
1601;SDS011;794;48.592;9.634;2023-09-18T14:54:38;1.60;;;1.23;;
1601;SDS011;794;48.592;9.634;2023-09-18T14:57:09;4.97;;;1.20;;
1601;SDS011;794;48.592;9.634;2023-09-18T14:59:36;1.83;;;1.53;;
1601;SDS011;794;48.592;9.634;2023-09-18T15:02:04;2.03;;;1.10;;
1601;SDS011;794;48.592;9.634;2023-09-18T15:04:31;1.57;;;1.33;;
1601;SDS011;794;48.592;9.634;2023-09-18T15:06:59;3.00;;;1.40;;
1601;SDS011;794;48.592;9.634;2023-09-18T15:09:26;1.57;;;1.20;;
1601;SDS011;794;48.592;9.634;2023-09-18T15:11:56;2.80;;;1.30;;
1601;SDS011;794;48.592;9.634;2023-09-18T15:14:24;3.40;;;1.37;;
1601;SDS011;794;48.592;9.634;2023-09-18T15:16:51;2.60;;;1.10;;
1601;SDS011;794;48.592;9.634;2023-09-18T15:19:22;2.60;;;1.40;;
1601;SDS011;794;48.592;9.634;2023-09-18T15:21:49;1.87;;;1.17;;
1601;SDS011;794;48.592;9.634;2023-09-18T15:24:17;4.13;;;1.57;;
1601;SDS011;794;48.592;9.634;2023-09-18T15:26:46;1.77;;;1.10;;
1601;SDS011;794;48.592;9.634;2023-09-18T15:29:15;1.67;;;1.40;;
1601;SDS011;794;48.592;9.634;2023-09-18T15:31:43;2.20;;;1.63;;
1601;SDS011;794;48.592;9.634;2023-09-18T15:34:12;2.87;;;1.43;;
1601;SDS011;794;48.592;9.634;2023-09-18T15:36:39;1.73;;;1.10;;
1601;SDS011;794;48.592;9.634;2023-09-18T15:39:06;1.53;;;1.10;;
1601;SDS011;794;48.592;9.634;2023-09-18T15:41:39;1.37;;;1.23;;
1601;SDS011;794;48.592;9.634;2023-09-18T15:44:06;1.27;;;1.00;;